Time;durP1;ratioP1;P1;durP2;ratioP2;P2;SDS_P1;SDS_P2;PMS_P1;PMS_P2;Temp;Humidity;BMP_temperature;BMP_pressure;BME280_temperature;BME280_humidity;BME280_pressure;Samples;Min_cycle;Max_cycle;Signal;HPM_P1;HPM_P2
2024/04/24 00:01:44;;;;;;;;;;;;;;;12.46;77.70;93484.13;4445194;26;20003;-60
2024/04/24 00:03:46;;;;;;;;;;;;;;;12.47;78.10;93485.72;4442458;26;19934;-61
2024/04/24 00:05:48;;;;;;;;;;;;;;;12.44;77.79;93480.91;4441813;26;19930;-59
2024/04/24 00:07:49;;;;;;;;;;;;;;;12.42;78.21;93482.91;4443907;26;20299;-60
2024/04/24 00:09:51;;;;;;;;;;;;;;;12.42;77.81;93482.91;4443816;26;19929;-60
2024/04/24 00:11:53;;;;;;;;;;;;;;;12.44;78.07;93483.53;4431705;26;19941;-60
2024/04/24 00:13:57;;;;;;;;;;;;;;;12.45;78.20;93472.00;4439544;26;19969;-60
2024/04/24 00:15:58;;;;;;;;;;;;;;;12.43;78.54;93468.75;4427861;26;19930;-59
2024/04/24 00:18:00;;;;;;;;;;;;;;;12.43;78.48;93463.50;4432500;26;20457;-60
2024/04/24 00:20:02;;;;;;;;;;;;;;;12.39;78.27;93462.28;4446270;26;20300;-60
2024/04/24 00:22:05;;;;;;;;;;;;;;;12.37;78.38;93477.44;4441301;26;19998;-64
2024/04/24 00:24:07;;;;;;;;;;;;;;;12.37;78.19;93464.28;4441327;26;19984;-62
2024/04/24 00:26:09;;;;;;;;;;;;;;;12.35;78.62;93456.63;4444761;26;20015;-60
2024/04/24 00:28:11;;;;;;;;;;;;;;;12.37;78.05;93453.78;4442561;26;19930;-60
2024/04/24 00:30:13;;;;;;;;;;;;;;;12.38;78.08;93458.84;4439404;26;19930;-60
2024/04/24 00:32:15;;;;;;;;;;;;;;;12.39;78.36;93452.59;4437987;26;19929;-60
2024/04/24 00:34:16;;;;;;;;;;;;;;;12.29;77.84;93468.75;4444478;26;20002;-61
2024/04/24 00:36:18;;;;;;;;;;;;;;;12.17;78.34;93465.06;4443478;26;19979;-62
2024/04/24 00:38:20;;;;;;;;;;;;;;;12.18;78.53;93471.97;4435298;26;19937;-60
2024/04/24 00:40:22;;;;;;;;;;;;;;;12.11;78.68;93472.94;4445279;26;19945;-60
2024/04/24 00:42:24;;;;;;;;;;;;;;;11.70;80.79;93474.59;4439371;26;19929;-60
2024/04/24 00:44:25;;;;;;;;;;;;;;;11.57;80.84;93488.47;4438444;26;19940;-61
2024/04/24 00:46:28;;;;;;;;;;;;;;;11.47;81.74;93483.56;4444724;26;19937;-60
2024/04/24 00:48:29;;;;;;;;;;;;;;;11.48;82.59;93477.31;4439801;26;19969;-62
2024/04/24 00:50:31;;;;;;;;;;;;;;;11.46;82.38;93483.75;4427275;26;20252;-59
2024/04/24 00:52:33;;;;;;;;;;;;;;;11.56;82.21;93478.19;4425801;26;19999;-62
2024/04/24 00:54:35;;;;;;;;;;;;;;;11.70;82.12;93466.72;4435987;26;19941;-60
2024/04/24 00:56:36;;;;;;;;;;;;;;;11.80;81.90;93464.53;4438707;26;19941;-60
2024/04/24 00:58:38;;;;;;;;;;;;;;;11.91;81.35;93470.25;4439514;26;19938;-61
2024/04/24 01:00:40;;;;;;;;;;;;;;;12.00;80.95;93479.56;4435778;26;20494;-62
2024/04/24 01:02:44;;;;;;;;;;;;;;;12.03;81.03;93471.31;4441217;26;19929;-60
2024/04/24 01:04:46;;;;;;;;;;;;;;;12.09;80.35;93476.59;4452870;26;19956;-59
2024/04/24 01:06:48;;;;;;;;;;;;;;;12.15;80.27;93480.22;4442751;26;20276;-60
2024/04/24 01:08:52;;;;;;;;;;;;;;;12.16;79.71;93487.09;4442757;26;20244;-60
2024/04/24 01:10:57;;;;;;;;;;;;;;;12.14;79.65;93483.84;4441693;26;19933;-59
2024/04/24 01:12:58;;;;;;;;;;;;;;;12.16;79.72;93483.66;4437580;26;19945;-61
2024/04/24 01:15:00;;;;;;;;;;;;;;;12.13;79.63;93479.63;4438125;26;20037;-61
2024/04/24 01:17:03;;;;;;;;;;;;;;;12.07;79.64;93489.09;4441909;26;19985;-60
2024/04/24 01:19:24;;;;;;;;;;;;;;;11.91;80.24;93493.88;4436406;26;20017;-60
2024/04/24 01:21:27;;;;;;;;;;;;;;;11.91;80.28;93491.25;4446035;26;19976;-61
2024/04/24 01:24:07;;;;;;;;;;;;;;;11.91;80.83;93496.50;4434482;26;20335;-59
2024/04/24 01:26:21;;;;;;;;;;;;;;;11.94;80.65;93498.72;4407246;26;20046;-60
2024/04/24 01:28:23;;;;;;;;;;;;;;;11.95;80.35;93503.78;4385071;26;20413;-59
2024/04/24 01:30:24;;;;;;;;;;;;;;;11.97;80.14;93508.84;4412893;26;19944;-61
2024/04/24 01:32:26;;;;;;;;;;;;;;;11.98;80.18;93508.66;4412209;26;19930;-59
2024/04/24 01:34:29;;;;;;;;;;;;;;;12.00;79.93;93509.28;4369235;26;19975;-60
2024/04/24 01:36:30;;;;;;;;;;;;;;;11.97;80.07;93508.84;4414393;26;20381;-60
2024/04/24 01:38:32;;;;;;;;;;;;;;;11.94;79.97;93506.59;4405709;26;19938;-60
2024/04/24 01:40:34;;;;;;;;;;;;;;;11.86;80.31;93511.00;4409074;26;20049;-60
2024/04/24 01:42:36;;;;;;;;;;;;;;;11.70;80.11;93500.81;4378551;27;20329;-60
2024/04/24 01:44:37;;;;;;;;;;;;;;;11.67;80.90;93514.34;4410577;26;20428;-60
2024/04/24 01:46:39;;;;;;;;;;;;;;;11.71;81.22;93510.31;4410129;26;20361;-62
2024/04/24 01:48:41;;;;;;;;;;;;;;;11.51;81.43;93514.66;4412128;26;19930;-60
2024/04/24 01:50:44;;;;;;;;;;;;;;;11.46;82.09;93507.38;4413551;26;19934;-61
2024/04/24 01:52:46;;;;;;;;;;;;;;;11.35;82.03;93507.91;4413511;26;20045;-61
2024/04/24 01:54:48;;;;;;;;;;;;;;;11.40;82.46;93522.06;4413498;26;20443;-58
2024/04/24 01:56:50;;;;;;;;;;;;;;;11.53;83.12;93515.25;4417822;26;19937;-61
2024/04/24 01:58:52;;;;;;;;;;;;;;;11.57;82.15;93525.19;4444384;26;19941;-60
2024/04/24 02:00:54;;;;;;;;;;;;;;;11.64;82.51;93522.59;4444743;26;19929;-61
2024/04/24 02:02:56;;;;;;;;;;;;;;;11.45;81.75;93511.81;4435757;26;20047;-61
2024/04/24 02:05:00;;;;;;;;;;;;;;;11.46;82.57;93531.81;4436185;26;20708;-61
2024/04/24 02:07:02;;;;;;;;;;;;;;;11.54;82.62;93516.91;4438045;26;19963;-60
2024/04/24 02:09:04;;;;;;;;;;;;;;;11.59;82.13;93524.97;4464692;26;19929;-61
2024/04/24 02:11:05;;;;;;;;;;;;;;;11.64;81.93;93523.41;4425622;26;19980;-61
2024/04/24 02:13:07;;;;;;;;;;;;;;;11.57;81.62;93513.88;4442327;26;19966;-60
2024/04/24 02:15:09;;;;;;;;;;;;;;;11.51;81.85;93523.34;4439499;26;19941;-62
2024/04/24 02:17:11;;;;;;;;;;;;;;;11.52;82.40;93524.16;4444145;26;20003;-61
2024/04/24 02:19:13;;;;;;;;;;;;;;;11.51;82.42;93527.75;4431096;26;19946;-60
2024/04/24 02:21:14;;;;;;;;;;;;;;;11.25;83.18;93524.81;4444119;26;20325;-61
2024/04/24 02:23:20;;;;;;;;;;;;;;;10.96;84.68;93517.13;4444931;26;19942;-59
2024/04/24 02:25:34;;;;;;;;;;;;;;;10.92;85.37;93523.75;4428483;26;20418;-60
2024/04/24 02:27:36;;;;;;;;;;;;;;;11.05;85.89;93524.66;4433800;26;19937;-60
2024/04/24 02:29:38;;;;;;;;;;;;;;;11.17;85.03;93532.00;4433936;26;19929;-60
2024/04/24 02:31:54;;;;;;;;;;;;;;;11.28;84.73;93526.22;4440827;26;19929;-61
2024/04/24 02:33:56;;;;;;;;;;;;;;;11.40;84.47;93526.47;4442347;26;19930;-61
2024/04/24 02:35:58;;;;;;;;;;;;;;;11.46;83.80;93526.56;4454103;26;20030;-60
2024/04/24 02:38:00;;;;;;;;;;;;;;;11.54;83.07;93543.13;4424637;26;19930;-59
2024/04/24 02:40:02;;;;;;;;;;;;;;;11.60;82.75;93537.13;4430168;26;19930;-60
2024/04/24 02:42:04;;;;;;;;;;;;;;;11.69;82.25;93538.56;4441697;26;19940;-62
2024/04/24 02:44:06;;;;;;;;;;;;;;;11.75;82.09;93540.41;4438596;26;19941;-60
2024/04/24 02:46:08;;;;;;;;;;;;;;;11.79;81.58;93531.16;4443057;26;19930;-61
2024/04/24 02:48:09;;;;;;;;;;;;;;;11.83;81.62;93545.50;4402029;26;19937;-61
2024/04/24 02:50:11;;;;;;;;;;;;;;;11.84;80.61;93543.69;4444090;26;20342;-60
2024/04/24 02:52:13;;;;;;;;;;;;;;;11.88;80.88;93530.00;4447024;26;20058;-59
2024/04/24 02:54:15;;;;;;;;;;;;;;;11.94;80.56;93533.69;4445229;26;19968;-60
2024/04/24 02:56:17;;;;;;;;;;;;;;;11.87;80.69;93527.53;4445225;26;20350;-61
2024/04/24 02:58:20;;;;;;;;;;;;;;;11.82;80.57;93529.94;4442461;26;19937;-59
2024/04/24 03:00:22;;;;;;;;;;;;;;;11.86;81.10;93537.22;4441857;26;20349;-60
2024/04/24 03:02:24;;;;;;;;;;;;;;;11.91;80.76;93533.25;4440898;26;19941;-60
2024/04/24 03:04:26;;;;;;;;;;;;;;;11.96;80.80;93528.22;4444755;26;19964;-61
2024/04/24 03:06:27;;;;;;;;;;;;;;;11.96;80.00;93531.66;4437641;26;19930;-60
2024/04/24 03:08:30;;;;;;;;;;;;;;;11.97;79.99;93532.47;4445786;26;20295;-60
2024/04/24 03:10:31;;;;;;;;;;;;;;;12.01;80.42;93537.13;4436519;26;19998;-60
2024/04/24 03:12:33;;;;;;;;;;;;;;;12.04;79.90;93543.78;4439143;26;20357;-60
2024/04/24 03:14:35;;;;;;;;;;;;;;;12.06;79.99;93537.34;4437574;26;19934;-60
2024/04/24 03:16:37;;;;;;;;;;;;;;;12.10;79.48;93535.13;4439284;26;20048;-60
2024/04/24 03:18:41;;;;;;;;;;;;;;;12.13;79.36;93539.19;4431786;26;19937;-60
2024/04/24 03:20:43;;;;;;;;;;;;;;;12.17;79.17;93541.22;4432925;26;19937;-60
2024/04/24 03:22:45;;;;;;;;;;;;;;;12.19;78.88;93544.44;4415468;26;20440;-59
2024/04/24 03:24:47;;;;;;;;;;;;;;;12.20;79.01;93543.47;4432143;26;19938;-59
2024/04/24 03:26:48;;;;;;;;;;;;;;;12.24;79.24;93539.44;4438601;26;20302;-60
2024/04/24 03:28:50;;;;;;;;;;;;;;;12.24;78.46;93544.69;4441248;26;20007;-60
2024/04/24 03:30:52;;;;;;;;;;;;;;;12.26;78.73;93554.97;4443483;26;19969;-60
2024/04/24 03:32:54;;;;;;;;;;;;;;;12.27;78.95;93552.16;4441077;26;20349;-62
2024/04/24 03:34:56;;;;;;;;;;;;;;;12.30;78.82;93550.94;4444853;26;19933;-62
2024/04/24 03:36:58;;;;;;;;;;;;;;;12.33;78.19;93557.66;4441903;26;19937;-61
2024/04/24 03:39:00;;;;;;;;;;;;;;;12.33;78.57;93562.91;4443169;26;19936;-61
2024/04/24 03:41:02;;;;;;;;;;;;;;;12.20;78.55;93568.91;4445851;26;19937;-62
2024/04/24 03:43:04;;;;;;;;;;;;;;;11.87;79.30;93580.03;4446191;26;20297;-61
2024/04/24 03:45:06;;;;;;;;;;;;;;;11.66;80.60;93573.06;4446392;26;19929;-60
2024/04/24 03:47:08;;;;;;;;;;;;;;;11.61;81.24;93571.00;4445373;26;20325;-61
2024/04/24 03:49:10;;;;;;;;;;;;;;;11.67;81.60;93575.47;4440919;26;19957;-61
2024/04/24 03:51:12;;;;;;;;;;;;;;;11.62;81.44;93574.47;4455220;26;19939;-60
2024/04/24 03:53:14;;;;;;;;;;;;;;;11.69;81.58;93572.66;4432489;26;19935;-61
2024/04/24 03:55:16;;;;;;;;;;;;;;;11.75;81.87;93578.97;4444940;26;19933;-60
2024/04/24 03:57:17;;;;;;;;;;;;;;;11.70;81.29;93584.78;4441985;26;19999;-60
2024/04/24 03:59:22;;;;;;;;;;;;;;;11.70;81.48;93579.53;4432465;26;19956;-61
2024/04/24 04:01:25;;;;;;;;;;;;;;;11.73;81.20;93580.97;4446137;26;19957;-62
2024/04/24 04:03:27;;;;;;;;;;;;;;;11.77;81.32;93583.00;4442398;26;20055;-61
2024/04/24 04:05:29;;;;;;;;;;;;;;;11.86;81.25;93583.66;4444809;26;19933;-63
2024/04/24 04:07:31;;;;;;;;;;;;;;;11.96;81.05;93586.78;4438470;26;20334;-61
2024/04/24 04:09:32;;;;;;;;;;;;;;;12.03;80.28;93584.19;4443984;26;20275;-62
2024/04/24 04:11:34;;;;;;;;;;;;;;;12.08;79.90;93587.03;4446281;26;20044;-61
2024/04/24 04:13:36;;;;;;;;;;;;;;;12.13;79.35;93589.91;4444988;26;19929;-60
2024/04/24 04:15:38;;;;;;;;;;;;;;;12.16;79.63;93588.69;4430914;26;20233;-62
2024/04/24 04:17:40;;;;;;;;;;;;;;;12.17;79.64;93585.84;4442830;26;20532;-59
2024/04/24 04:19:43;;;;;;;;;;;;;;;12.20;78.99;93593.34;4443252;26;20006;-59
2024/04/24 04:21:45;;;;;;;;;;;;;;;12.25;79.30;93585.69;4442079;26;19930;-61
2024/04/24 04:23:46;;;;;;;;;;;;;;;12.29;78.80;93586.09;4444048;26;20333;-61
2024/04/24 04:25:48;;;;;;;;;;;;;;;12.26;78.85;93584.69;4436570;26;20008;-60
2024/04/24 04:27:50;;;;;;;;;;;;;;;12.30;78.77;93587.72;4439683;26;19929;-61
2024/04/24 04:29:52;;;;;;;;;;;;;;;12.33;78.55;93589.16;4440244;26;19965;-61
2024/04/24 04:31:54;;;;;;;;;;;;;;;12.38;78.55;93586.75;4443207;26;19941;-60
2024/04/24 04:33:56;;;;;;;;;;;;;;;12.40;78.54;93592.59;4437865;26;19929;-61
2024/04/24 04:35:57;;;;;;;;;;;;;;;12.41;78.35;93594.22;4442975;26;19933;-58
2024/04/24 04:38:00;;;;;;;;;;;;;;;12.42;78.03;93587.97;4442029;26;19964;-61
2024/04/24 04:40:03;;;;;;;;;;;;;;;12.47;78.16;93590.81;4444065;26;19937;-62
2024/04/24 04:42:05;;;;;;;;;;;;;;;12.52;78.09;93588.41;4444872;26;19941;-61
2024/04/24 04:44:07;;;;;;;;;;;;;;;12.57;77.69;93593.06;4443535;26;20341;-60
2024/04/24 04:46:08;;;;;;;;;;;;;;;12.56;77.92;93592.25;4432172;26;20246;-61
2024/04/24 04:48:10;;;;;;;;;;;;;;;12.61;77.67;93595.09;4436073;26;19938;-61
2024/04/24 04:50:12;;;;;;;;;;;;;;;12.64;77.62;93594.69;4442917;26;20245;-59
2024/04/24 04:52:14;;;;;;;;;;;;;;;12.67;77.53;93596.13;4442184;26;19941;-59
2024/04/24 04:54:16;;;;;;;;;;;;;;;12.73;77.21;93594.50;4445606;26;19930;-61
2024/04/24 04:56:18;;;;;;;;;;;;;;;12.79;77.04;93597.13;4443031;26;20015;-60
2024/04/24 04:58:19;;;;;;;;;;;;;;;12.83;76.96;93600.19;4434177;26;20348;-59
2024/04/24 05:00:21;;;;;;;;;;;;;;;12.84;76.73;93601.78;4446600;26;19961;-60
2024/04/24 05:02:23;;;;;;;;;;;;;;;12.67;76.73;93593.50;4439109;26;20713;-61
2024/04/24 05:04:25;;;;;;;;;;;;;;;12.66;77.31;93589.25;4439499;26;19953;-62
2024/04/24 05:06:27;;;;;;;;;;;;;;;12.64;77.57;93599.13;4444898;26;19947;-62
2024/04/24 05:08:29;;;;;;;;;;;;;;;12.67;77.44;93598.75;4443841;26;20358;-59
2024/04/24 05:10:31;;;;;;;;;;;;;;;12.71;77.41;93597.31;4441255;26;20016;-60
2024/04/24 05:12:33;;;;;;;;;;;;;;;12.80;77.66;93596.16;4435589;26;20123;-61
2024/04/24 05:14:35;;;;;;;;;;;;;;;12.93;77.57;93597.16;4445901;26;20041;-59
2024/04/24 05:16:36;;;;;;;;;;;;;;;13.00;77.11;93593.53;4445211;26;19961;-62
2024/04/24 05:18:39;;;;;;;;;;;;;;;13.05;76.55;93593.72;4434621;26;20016;-60
2024/04/24 05:20:41;;;;;;;;;;;;;;;13.08;76.28;93603.06;4436951;26;20340;-60
2024/04/24 05:22:58;;;;;;;;;;;;;;;13.13;76.15;93595.38;4439468;26;19991;-61
2024/04/24 05:25:00;;;;;;;;;;;;;;;13.21;75.78;93597.00;4444303;26;20006;-62
2024/04/24 05:29:23;;;;;;;;;;;;;;;13.37;75.54;93596.63;4432486;26;19998;-60
2024/04/24 05:31:26;;;;;;;;;;;;;;;13.31;74.83;93594.78;4441742;26;19938;-60
2024/04/24 05:33:27;;;;;;;;;;;;;;;13.25;74.77;93593.78;4447810;26;20867;-61
2024/04/24 05:35:29;;;;;;;;;;;;;;;13.32;75.53;93596.44;4431765;26;20003;-61
2024/04/24 05:37:31;;;;;;;;;;;;;;;13.33;75.22;93598.03;4425319;26;20068;-61
2024/04/24 05:39:33;;;;;;;;;;;;;;;13.39;75.27;93591.97;4428856;26;20427;-62
2024/04/24 05:41:35;;;;;;;;;;;;;;;13.49;75.06;93600.25;4443822;26;19998;-61
2024/04/24 05:43:36;;;;;;;;;;;;;;;13.45;74.60;93600.88;4443482;26;20003;-60
2024/04/24 05:45:38;;;;;;;;;;;;;;;13.40;74.01;93600.66;4444335;26;19959;-61
2024/04/24 05:47:40;;;;;;;;;;;;;;;13.36;74.02;93602.06;4429742;26;19930;-60
2024/04/24 05:49:42;;;;;;;;;;;;;;;13.39;74.09;93596.41;4445044;26;19965;-60
2024/04/24 05:51:44;;;;;;;;;;;;;;;13.43;74.17;93595.00;4433254;26;19937;-61
2024/04/24 05:53:46;;;;;;;;;;;;;;;13.59;74.33;93599.03;4444824;26;19962;-60
2024/04/24 05:55:48;;;;;;;;;;;;;;;13.52;73.21;93601.66;4435117;26;19929;-63
2024/04/24 05:57:50;;;;;;;;;;;;;;;13.45;73.31;93592.97;4440996;26;19957;-60
2024/04/24 05:59:51;;;;;;;;;;;;;;;13.15;73.90;93609.13;4439056;26;19937;-63
2024/04/24 06:01:54;;;;;;;;;;;;;;;13.11;73.79;93608.72;4442015;26;20037;-62
2024/04/24 06:03:55;;;;;;;;;;;;;;;12.82;73.75;93604.66;4439346;26;19929;-62
2024/04/24 06:05:57;;;;;;;;;;;;;;;12.38;74.78;93610.38;4445788;26;20027;-62
2024/04/24 06:07:59;;;;;;;;;;;;;;;12.33;75.81;93602.28;4433152;26;19954;-61
2024/04/24 06:10:02;;;;;;;;;;;;;;;12.34;76.73;93611.78;4443325;26;20003;-61
2024/04/24 06:12:03;;;;;;;;;;;;;;;12.42;77.06;93609.78;4440929;26;19930;-60
2024/04/24 06:14:05;;;;;;;;;;;;;;;12.57;76.34;93612.25;4442789;26;20060;-63
2024/04/24 06:16:08;;;;;;;;;;;;;;;12.42;76.01;93606.34;4431680;26;20428;-60
2024/04/24 06:18:09;;;;;;;;;;;;;;;12.54;75.76;93609.22;4435726;26;19941;-60
2024/04/24 06:20:18;;;;;;;;;;;;;;;12.52;76.23;93609.41;4432393;26;20487;-62
2024/04/24 06:22:20;;;;;;;;;;;;;;;12.45;76.29;93613.81;4427112;26;19930;-63
2024/04/24 06:24:21;;;;;;;;;;;;;;;12.61;75.96;93600.34;4430941;26;20320;-60
2024/04/24 06:26:23;;;;;;;;;;;;;;;12.74;75.43;93606.66;4442283;26;19942;-62
2024/04/24 06:28:25;;;;;;;;;;;;;;;12.97;75.30;93601.84;4437775;26;20458;-63
2024/04/24 06:30:27;;;;;;;;;;;;;;;13.08;74.25;93603.06;4430854;26;20004;-61
2024/04/24 06:32:29;;;;;;;;;;;;;;;12.76;74.88;93608.06;4434878;26;20015;-63
2024/04/24 06:34:31;;;;;;;;;;;;;;;12.26;74.84;93608.31;4437729;26;20689;-60
2024/04/24 06:36:33;;;;;;;;;;;;;;;12.27;75.85;93609.13;4435834;26;19930;-62
2024/04/24 06:38:35;;;;;;;;;;;;;;;12.40;75.48;93605.75;4430630;26;20345;-62
2024/04/24 06:40:37;;;;;;;;;;;;;;;12.61;75.78;93605.59;4444232;26;20699;-59
2024/04/24 06:42:39;;;;;;;;;;;;;;;12.67;76.20;93617.16;4442411;26;19961;-63
2024/04/24 06:44:41;;;;;;;;;;;;;;;12.83;75.75;93614.13;4428880;26;19930;-61
2024/04/24 06:46:43;;;;;;;;;;;;;;;12.91;74.59;93613.16;4444301;26;19941;-62
2024/04/24 06:48:44;;;;;;;;;;;;;;;12.96;74.01;93607.28;4433218;26;19946;-61
2024/04/24 06:50:46;;;;;;;;;;;;;;;13.01;72.98;93613.53;4433369;26;20277;-60
2024/04/24 06:52:48;;;;;;;;;;;;;;;12.97;73.32;93615.00;4442169;26;20318;-61
2024/04/24 06:54:50;;;;;;;;;;;;;;;12.96;73.24;93610.72;4433626;26;19930;-61
2024/04/24 06:56:53;;;;;;;;;;;;;;;13.09;73.45;93610.72;4433640;26;19938;-61
2024/04/24 06:58:55;;;;;;;;;;;;;;;13.30;72.95;93616.84;4434602;26;20587;-61
2024/04/24 07:00:57;;;;;;;;;;;;;;;13.45;72.54;93614.81;4439468;26;19930;-60
2024/04/24 07:02:59;;;;;;;;;;;;;;;13.50;71.46;93617.66;4430498;26;19929;-62
2024/04/24 07:05:01;;;;;;;;;;;;;;;13.50;70.46;93616.84;4431225;26;19974;-62
2024/04/24 07:07:03;;;;;;;;;;;;;;;13.37;70.09;93622.91;4443243;26;19945;-61
2024/04/24 07:09:05;;;;;;;;;;;;;;;13.28;70.36;93624.94;4443155;26;19930;-63
2024/04/24 07:11:07;;;;;;;;;;;;;;;12.95;68.69;93624.06;4429991;26;19934;-60
2024/04/24 07:13:09;;;;;;;;;;;;;;;12.84;70.81;93617.56;4430441;26;19945;-61
2024/04/24 07:15:10;;;;;;;;;;;;;;;12.92;69.27;93614.75;4441695;26;20453;-61
2024/04/24 07:17:12;;;;;;;;;;;;;;;12.91;69.42;93613.16;4442220;26;19937;-61
2024/04/24 07:19:14;;;;;;;;;;;;;;;13.07;69.29;93606.69;4434472;26;20004;-61
2024/04/24 07:21:16;;;;;;;;;;;;;;;13.24;67.58;93622.88;4435471;26;20020;-61
2024/04/24 07:23:19;;;;;;;;;;;;;;;13.28;67.76;93606.53;4440909;26;20003;-63
2024/04/24 07:25:21;;;;;;;;;;;;;;;13.19;67.88;93612.19;4429190;26;19929;-60
2024/04/24 07:27:23;;;;;;;;;;;;;;;13.08;67.87;93611.75;4423916;26;19985;-61
2024/04/24 07:29:25;;;;;;;;;;;;;;;13.14;68.42;93607.50;4435756;26;20002;-62
2024/04/24 07:31:27;;;;;;;;;;;;;;;13.21;68.53;93618.03;4442409;26;20010;-61
2024/04/24 07:33:31;;;;;;;;;;;;;;;13.54;68.07;93606.72;4439114;26;20487;-61
2024/04/24 07:35:33;;;;;;;;;;;;;;;13.40;66.39;93606.75;4434405;26;19984;-61
2024/04/24 07:37:35;;;;;;;;;;;;;;;13.35;66.96;93601.25;4438753;26;19929;-60
2024/04/24 07:39:36;;;;;;;;;;;;;;;13.45;66.95;93598.25;4443795;26;19933;-60
2024/04/24 07:41:38;;;;;;;;;;;;;;;13.49;66.13;93607.34;4445046;26;19929;-60
2024/04/24 07:43:44;;;;;;;;;;;;;;;13.79;65.67;93604.25;4445557;26;19936;-61
2024/04/24 07:45:46;;;;;;;;;;;;;;;13.98;65.53;93605.22;4446070;26;20260;-61
2024/04/24 07:47:48;;;;;;;;;;;;;;;14.03;64.43;93613.34;4445124;26;19941;-63
2024/04/24 07:49:50;;;;;;;;;;;;;;;14.32;64.34;93615.44;4431287;26;19981;-62
2024/04/24 07:51:52;;;;;;;;;;;;;;;14.19;63.05;93612.88;4430590;26;19933;-62
2024/04/24 07:53:54;;;;;;;;;;;;;;;14.29;62.63;93615.88;4434807;26;19930;-61
2024/04/24 07:55:55;;;;;;;;;;;;;;;14.48;61.91;93605.47;4442453;26;20840;-61
2024/04/24 07:57:57;;;;;;;;;;;;;;;14.63;61.89;93606.03;4433357;26;19949;-65
2024/04/24 07:59:59;;;;;;;;;;;;;;;14.70;61.48;93612.09;4445175;26;20390;-61
2024/04/24 08:02:01;;;;;;;;;;;;;;;14.71;61.32;93605.81;4445671;26;19956;-61
2024/04/24 08:04:04;;;;;;;;;;;;;;;14.49;61.38;93612.34;4441394;26;19930;-63
2024/04/24 08:06:07;;;;;;;;;;;;;;;14.41;62.50;93618.69;4445308;26;19930;-61
2024/04/24 08:08:09;;;;;;;;;;;;;;;14.44;62.50;93620.91;4441294;26;19998;-62
2024/04/24 08:10:11;;;;;;;;;;;;;;;14.63;60.74;93611.31;4442524;26;19980;-60
2024/04/24 08:12:13;;;;;;;;;;;;;;;14.93;61.13;93616.03;4450188;26;20344;-63
2024/04/24 08:14:15;;;;;;;;;;;;;;;15.02;60.28;93609.47;4443245;26;19933;-60
2024/04/24 08:16:16;;;;;;;;;;;;;;;15.06;59.33;93613.31;4444109;26;20403;-60
2024/04/24 08:18:18;;;;;;;;;;;;;;;15.07;59.72;93614.91;4442205;26;19940;-59
2024/04/24 08:20:20;;;;;;;;;;;;;;;15.24;58.74;93611.75;4437755;26;19960;-62
2024/04/24 08:22:22;;;;;;;;;;;;;;;14.98;58.61;93621.47;4444860;26;20025;-61
2024/04/24 08:24:24;;;;;;;;;;;;;;;14.99;58.83;93615.16;4443962;26;19961;-62
2024/04/24 08:26:26;;;;;;;;;;;;;;;15.01;58.09;93613.13;4441862;26;19998;-61
2024/04/24 08:28:28;;;;;;;;;;;;;;;15.26;58.74;93607.09;4443574;26;20690;-62
2024/04/24 08:30:41;;;;;;;;;;;;;;;15.16;57.92;93620.72;4436330;26;19936;-63
2024/04/24 08:32:43;;;;;;;;;;;;;;;15.22;57.77;93619.06;4438877;26;19937;-61
2024/04/24 08:34:45;;;;;;;;;;;;;;;15.32;56.64;93614.94;4442135;26;19937;-63
2024/04/24 08:36:47;;;;;;;;;;;;;;;15.33;56.40;93619.19;4445513;26;20534;-62
2024/04/24 08:38:48;;;;;;;;;;;;;;;15.51;56.91;93613.19;4436855;26;20283;-63
2024/04/24 08:40:52;;;;;;;;;;;;;;;15.28;55.64;93603.19;4440674;26;19976;-62
2024/04/24 08:42:54;;;;;;;;;;;;;;;15.20;56.22;93603.47;4443599;26;20399;-62
2024/04/24 08:44:57;;;;;;;;;;;;;;;15.27;56.77;93598.97;4434582;26;19949;-63
2024/04/24 08:46:59;;;;;;;;;;;;;;;15.66;56.48;93599.66;4431900;26;20403;-62
2024/04/24 08:49:03;;;;;;;;;;;;;;;16.04;55.27;93590.75;4437234;26;19930;-61
2024/04/24 08:51:05;;;;;;;;;;;;;;;15.52;54.81;93590.22;4443172;26;19940;-62
2024/04/24 08:53:07;;;;;;;;;;;;;;;15.56;56.02;93584.28;4445223;26;20520;-60
2024/04/24 08:55:09;;;;;;;;;;;;;;;14.94;56.13;93588.63;4445846;26;19933;-61
2024/04/24 08:57:11;;;;;;;;;;;;;;;14.99;57.03;93594.06;4442983;26;20213;-64
2024/04/24 08:59:21;;;;;;;;;;;;;;;15.21;57.18;93591.06;4443094;26;20276;-62
2024/04/24 09:01:23;;;;;;;;;;;;;;;15.51;56.82;93596.53;4447388;26;19936;-61
2024/04/24 09:03:26;;;;;;;;;;;;;;;15.96;56.26;93599.78;4452973;26;19929;-61
2024/04/24 09:05:30;;;;;;;;;;;;;;;16.31;55.48;93609.78;4436527;26;20337;-59
2024/04/24 09:07:32;;;;;;;;;;;;;;;16.55;54.16;93601.97;4444950;26;19934;-61
2024/04/24 09:09:34;;;;;;;;;;;;;;;16.67;53.67;93604.66;4422999;26;20003;-62
2024/04/24 09:11:36;;;;;;;;;;;;;;;16.85;53.17;93590.66;4421293;26;19930;-62
2024/04/24 09:13:38;;;;;;;;;;;;;;;17.19;52.81;93578.56;4439066;26;19930;-60
2024/04/24 09:15:41;;;;;;;;;;;;;;;16.82;51.68;93597.19;4444323;26;19998;-61
2024/04/24 09:17:42;;;;;;;;;;;;;;;16.06;53.76;93598.47;4444057;26;20382;-61
2024/04/24 09:19:44;;;;;;;;;;;;;;;16.03;53.86;93594.44;4431602;26;19942;-63
2024/04/24 09:21:46;;;;;;;;;;;;;;;16.14;53.61;93590.25;4438787;26;19972;-59
2024/04/24 09:23:48;;;;;;;;;;;;;;;16.39;53.26;93587.53;4436248;26;20061;-61
2024/04/24 09:25:50;;;;;;;;;;;;;;;16.31;52.47;93588.63;4429539;26;19999;-61
2024/04/24 09:27:53;;;;;;;;;;;;;;;16.42;52.87;93587.09;4442532;26;20382;-60
2024/04/24 09:29:54;;;;;;;;;;;;;;;16.81;52.61;93579.69;4443809;26;20670;-61
2024/04/24 09:31:57;;;;;;;;;;;;;;;17.24;52.29;93580.50;4434691;26;19934;-61
2024/04/24 09:33:58;;;;;;;;;;;;;;;17.56;51.76;93565.94;4427909;26;20056;-62
2024/04/24 09:36:00;;;;;;;;;;;;;;;17.69;51.69;93567.53;4445388;26;19981;-64
2024/04/24 09:38:04;;;;;;;;;;;;;;;17.87;51.08;93563.19;4439733;26;19934;-61
2024/04/24 09:40:07;;;;;;;;;;;;;;;18.00;51.35;93568.25;4430132;26;19937;-61
2024/04/24 09:42:10;;;;;;;;;;;;;;;18.08;51.29;93565.25;4433325;26;19930;-63
2024/04/24 09:44:12;;;;;;;;;;;;;;;18.21;49.70;93562.34;4439191;26;19937;-62
2024/04/24 09:46:18;;;;;;;;;;;;;;;18.36;48.63;93559.19;4432054;26;19941;-60
2024/04/24 09:48:20;;;;;;;;;;;;;;;18.36;48.45;93556.53;4439458;26;19941;-62
2024/04/24 09:50:26;;;;;;;;;;;;;;;18.52;48.13;93546.22;4423717;26;19970;-61
2024/04/24 09:52:28;;;;;;;;;;;;;;;18.55;47.98;93545.78;4436557;26;20329;-60
2024/04/24 09:54:29;;;;;;;;;;;;;;;17.91;48.95;93537.84;4436702;26;20284;-60
2024/04/24 09:56:31;;;;;;;;;;;;;;;17.91;49.45;93535.19;4432634;26;19941;-61
2024/04/24 09:58:33;;;;;;;;;;;;;;;17.73;49.49;93533.47;4435505;26;20057;-61
2024/04/24 10:00:35;;;;;;;;;;;;;;;17.63;49.82;93539.34;4439509;26;20893;-60
2024/04/24 10:02:42;;;;;;;;;;;;;;;17.23;49.83;93549.78;4441179;26;20069;-60
2024/04/24 10:04:45;;;;;;;;;;;;;;;17.42;50.88;93556.59;4435052;26;19941;-61
2024/04/24 10:06:48;;;;;;;;;;;;;;;17.43;50.84;93550.28;4413567;26;19934;-62
2024/04/24 10:08:51;;;;;;;;;;;;;;;17.83;50.22;93543.50;4437959;26;19938;-62
2024/04/24 10:10:53;;;;;;;;;;;;;;;17.42;49.88;93548.66;4404460;26;19982;-60
2024/04/24 10:12:55;;;;;;;;;;;;;;;17.11;50.42;93547.91;4426358;26;19930;-60
2024/04/24 10:15:04;;;;;;;;;;;;;;;17.02;50.76;93551.94;4441316;26;20434;-59
2024/04/24 10:17:06;;;;;;;;;;;;;;;16.98;51.46;93546.28;4425753;26;20264;-60
2024/04/24 10:19:08;;;;;;;;;;;;;;;17.21;50.84;93552.66;4436594;26;20400;-61
2024/04/24 10:21:10;;;;;;;;;;;;;;;17.67;50.83;93550.28;4432145;26;19930;-62
2024/04/24 10:23:12;;;;;;;;;;;;;;;18.05;50.16;93535.75;4443795;26;19930;-63
2024/04/24 10:25:13;;;;;;;;;;;;;;;18.37;49.43;93531.66;4438200;26;19961;-61
2024/04/24 10:27:15;;;;;;;;;;;;;;;18.54;49.12;93530.88;4403475;26;19985;-62
2024/04/24 10:29:18;;;;;;;;;;;;;;;18.83;48.04;93532.53;4441966;26;20006;-62
2024/04/24 10:31:20;;;;;;;;;;;;;;;18.94;48.23;93530.06;4412754;26;19938;-58
2024/04/24 10:33:22;;;;;;;;;;;;;;;19.07;47.42;93528.94;4440209;26;19937;-60
2024/04/24 10:35:26;;;;;;;;;;;;;;;18.69;47.36;93531.19;4437300;26;19937;-64
2024/04/24 10:37:28;;;;;;;;;;;;;;;18.48;47.91;93529.19;4434958;26;19980;-61
2024/04/24 10:39:29;;;;;;;;;;;;;;;18.52;48.33;93522.34;4434844;26;20363;-62
2024/04/24 10:41:31;;;;;;;;;;;;;;;18.57;48.19;93530.44;4440945;26;19936;-61